Terminal Aerodrome Forecast
Issued by NWS Portland, ME

Home | Current Version | Previous Version | Text Only | Print | Product List | Glossary On
Versions: 1 2 3 4 5 6 7 8 9 10 11 12 13 14 15 16 17 18 19 20
000
FTUS41 KGYX 221339 AAA
TAFCON
TAF AMD
KCON 221339Z 2214/2312 02009KT 6SM -RA BR OVC010 WS020/03040KT
     FM221600 36012G22KT 4SM -RA OVC010 WS020/03040KT
     FM230200 35015G23KT 4SM -RA BR OVC007
     FM231000 35018KT 4SM -RA BR OVC003=

USA.gov is the U.S. government's official web portal to all federal, state and local government web resources and services.